createdAt,value
2022-10-05T00:00:37.471Z,8.72
2022-10-05T00:03:13.144Z,8.79
2022-10-05T00:05:45.414Z,8.86
2022-10-05T00:08:20.182Z,8.94
2022-10-05T00:10:52.942Z,9.02
2022-10-05T00:13:25.151Z,9.09
2022-10-05T00:16:01.380Z,9.14
2022-10-05T00:18:34.212Z,9.17
2022-10-05T00:28:22.217Z,9.12
2022-10-05T00:30:52.814Z,9.04
2022-10-05T00:33:24.104Z,8.97
2022-10-05T00:35:54.982Z,8.91
2022-10-05T00:38:25.560Z,8.88
2022-10-05T00:41:04.426Z,8.84
2022-10-05T00:43:50.015Z,8.80
2022-10-05T00:46:23.856Z,8.75
2022-10-05T00:49:00.104Z,8.70
2022-10-05T00:51:31.361Z,8.65
2022-10-05T00:54:18.143Z,8.63
2022-10-05T00:57:10.641Z,8.63
2022-10-05T00:59:50.730Z,8.61
2022-10-05T01:02:30.011Z,8.60
2022-10-05T01:05:06.842Z,8.60
2022-10-05T01:07:42.386Z,8.59
2022-10-05T01:10:19.217Z,8.57
2022-10-05T01:12:58.476Z,8.54
2022-10-05T01:15:34.246Z,8.53
2022-10-05T01:18:08.581Z,8.52
2022-10-05T01:20:44.829Z,8.51
2022-10-05T01:23:33.293Z,8.51
2022-10-05T01:26:13.903Z,8.50
2022-10-05T01:28:50.482Z,8.48
2022-10-05T01:31:25.100Z,8.47
2022-10-05T01:34:05.768Z,8.48
2022-10-05T01:36:47.244Z,8.51
2022-10-05T01:39:24.035Z,8.53
2022-10-05T01:42:00.153Z,8.56
2022-10-05T01:44:34.573Z,8.58
2022-10-05T01:47:10.229Z,8.58
2022-10-05T01:49:45.972Z,8.57
2022-10-05T01:52:27.221Z,8.56
2022-10-05T01:55:09.582Z,8.55
2022-10-05T01:57:48.872Z,8.55
2022-10-05T02:00:20.639Z,8.55
2022-10-05T02:02:53.847Z,8.54
2022-10-05T02:05:27.179Z,8.51
2022-10-05T02:08:01.188Z,8.49
2022-10-05T02:10:34.191Z,8.46
2022-10-05T02:13:04.344Z,8.46
2022-10-05T02:15:39.667Z,8.45
2022-10-05T02:18:13.698Z,8.44
2022-10-05T02:20:44.990Z,8.45
2022-10-05T02:23:19.094Z,8.44
2022-10-05T02:25:50.915Z,8.42
2022-10-05T02:28:24.638Z,8.39
2022-10-05T02:30:59.000Z,8.38
2022-10-05T02:33:31.919Z,8.36
2022-10-05T02:36:14.641Z,8.35
2022-10-05T02:38:56.933Z,8.32
2022-10-05T02:41:35.583Z,8.29
2022-10-05T02:44:12.044Z,8.27
2022-10-05T02:46:47.296Z,8.23
2022-10-05T02:49:23.924Z,8.21
2022-10-05T02:52:01.287Z,8.18
2022-10-05T02:54:40.084Z,8.14
2022-10-05T02:57:15.833Z,8.09
2022-10-05T02:59:48.790Z,8.05
2022-10-05T03:02:19.536Z,8.00
2022-10-05T03:04:56.242Z,7.97
2022-10-05T03:07:30.622Z,7.93
2022-10-05T03:10:04.793Z,7.90
2022-10-05T03:12:45.957Z,7.87
2022-10-05T03:15:46.498Z,7.85
2022-10-05T03:18:26.352Z,7.80
2022-10-05T03:21:10.910Z,7.80
2022-10-05T03:23:52.024Z,7.84
2022-10-05T03:26:30.739Z,7.92
2022-10-05T03:29:08.568Z,8.02
2022-10-05T03:31:43.644Z,8.14
2022-10-05T03:34:18.094Z,8.29
2022-10-05T03:36:52.416Z,8.47
2022-10-05T03:39:28.783Z,8.66
2022-10-05T03:42:05.284Z,8.84
2022-10-05T03:44:40.021Z,9.00
2022-10-05T03:47:16.184Z,9.15
2022-10-05T03:50:02.585Z,9.34
2022-10-05T03:52:37.711Z,9.53
2022-10-05T03:55:14.731Z,9.67
2022-10-05T03:57:46.438Z,9.80
2022-10-05T04:00:20.385Z,9.91
2022-10-05T04:02:59.138Z,10.00
2022-10-05T04:05:33.226Z,10.11
2022-10-05T04:08:06.191Z,10.21
2022-10-05T04:10:42.751Z,10.29
2022-10-05T04:13:18.126Z,10.35
2022-10-05T04:15:54.654Z,10.39
2022-10-05T04:18:30.942Z,10.44
2022-10-05T04:21:05.474Z,10.48
2022-10-05T04:23:46.556Z,10.48
2022-10-05T04:26:20.980Z,10.47
2022-10-05T04:28:56.348Z,10.45
2022-10-05T04:31:38.207Z,10.44
2022-10-05T04:34:19.594Z,10.42
2022-10-05T04:36:54.245Z,10.43
2022-10-05T04:39:32.359Z,10.42
2022-10-05T04:42:10.178Z,10.41
2022-10-05T04:44:59.440Z,10.37
2022-10-05T04:47:56.688Z,10.34
2022-10-05T04:57:53.979Z,10.27
2022-10-05T05:00:29.385Z,10.20
2022-10-05T05:03:34.248Z,10.19
2022-10-05T05:06:17.318Z,10.17
2022-10-05T05:09:06.053Z,10.15
2022-10-05T05:11:42.810Z,10.13
2022-10-05T05:14:26.671Z,10.09
2022-10-05T05:17:12.877Z,10.06
2022-10-05T05:19:52.777Z,10.04
2022-10-05T05:22:30.044Z,10.04
2022-10-05T05:25:17.410Z,10.02
2022-10-05T05:27:52.482Z,9.99
2022-10-05T05:30:26.389Z,9.94
2022-10-05T05:33:09.700Z,9.89
2022-10-05T05:36:23.514Z,9.85
2022-10-05T05:39:05.351Z,9.81
2022-10-05T05:41:40.164Z,9.77
2022-10-05T05:44:18.738Z,9.74
2022-10-05T05:47:10.650Z,9.70
2022-10-05T05:49:46.067Z,9.69
2022-10-05T05:58:20.175Z,9.72
2022-10-05T06:00:53.826Z,9.72
2022-10-05T06:03:27.622Z,9.76
2022-10-05T06:06:00.369Z,9.79
2022-10-05T06:08:36.445Z,9.80
2022-10-05T06:11:17.498Z,9.82
2022-10-05T06:13:49.418Z,9.85
2022-10-05T06:16:24.491Z,9.86
2022-10-05T06:18:58.488Z,9.88
2022-10-05T06:21:35.739Z,9.93
2022-10-05T06:24:10.977Z,10.01
2022-10-05T06:27:11.485Z,10.11
2022-10-05T06:29:52.738Z,10.22
2022-10-05T06:32:28.644Z,10.31
2022-10-05T06:35:10.816Z,10.42
2022-10-05T06:37:59.813Z,10.52
2022-10-05T06:40:40.103Z,10.63
2022-10-05T06:43:21.594Z,10.72
2022-10-05T06:46:17.934Z,10.84
2022-10-05T06:49:19.094Z,10.94
2022-10-05T06:52:19.944Z,11.05
2022-10-05T06:55:00.284Z,11.15
2022-10-05T06:57:43.944Z,11.25
2022-10-05T07:00:20.535Z,11.33
2022-10-05T07:02:57.346Z,11.42
2022-10-05T07:05:47.895Z,11.48
2022-10-05T07:08:24.200Z,11.54
2022-10-05T07:11:05.044Z,11.57
2022-10-05T07:13:49.950Z,11.55
2022-10-05T07:16:27.516Z,11.54
2022-10-05T07:19:11.388Z,11.53
2022-10-05T07:21:46.858Z,11.57
2022-10-05T07:24:29.543Z,11.64
2022-10-05T07:27:07.536Z,11.75
2022-10-05T07:29:44.519Z,11.86
2022-10-05T07:32:23.151Z,11.92
2022-10-05T07:34:59.146Z,12.01
2022-10-05T07:37:53.799Z,12.10
2022-10-05T07:40:30.532Z,12.13
2022-10-05T07:43:18.420Z,12.14
2022-10-05T07:45:52.404Z,12.37
2022-10-05T07:48:24.245Z,12.79
2022-10-05T07:51:01.763Z,13.02
2022-10-05T07:53:36.542Z,13.09
2022-10-05T07:56:13.654Z,13.07
2022-10-05T07:58:47.918Z,13.08
2022-10-05T08:01:22.674Z,13.07
2022-10-05T08:04:00.002Z,12.96
2022-10-05T08:06:47.970Z,12.88
2022-10-05T08:09:29.960Z,12.83
2022-10-05T08:12:11.626Z,12.90
2022-10-05T08:14:47.685Z,13.03
2022-10-05T08:17:26.516Z,13.09
2022-10-05T08:20:04.681Z,13.03
2022-10-05T08:22:41.835Z,13.05
2022-10-05T08:25:19.319Z,13.04
2022-10-05T08:27:53.636Z,13.00
2022-10-05T08:30:24.443Z,12.92
2022-10-05T08:32:58.841Z,12.85
2022-10-05T08:35:34.758Z,12.90
2022-10-05T08:38:09.212Z,13.00
2022-10-05T08:41:01.339Z,13.00
2022-10-05T08:43:45.586Z,13.02
2022-10-05T08:46:37.968Z,13.09
2022-10-05T08:49:36.139Z,13.15
2022-10-05T08:52:23.685Z,13.24
2022-10-05T08:55:27.034Z,13.34
2022-10-05T08:58:25.886Z,13.50
2022-10-05T09:01:06.029Z,13.68
2022-10-05T09:04:19.496Z,13.84
2022-10-05T09:07:12.211Z,14.04
2022-10-05T09:10:18.877Z,14.18
2022-10-05T09:13:10.484Z,14.41
2022-10-05T09:16:07.293Z,14.56
2022-10-05T09:18:57.025Z,15.30
2022-10-05T09:21:39.722Z,15.77
2022-10-05T09:24:21.567Z,16.15
2022-10-05T09:27:01.445Z,15.96
2022-10-05T09:29:51.384Z,15.68
2022-10-05T09:32:40.992Z,15.36
2022-10-05T09:35:25.633Z,15.20
2022-10-05T09:38:17.496Z,15.23
2022-10-05T09:41:20.401Z,15.21
2022-10-05T09:44:27.441Z,15.13
2022-10-05T09:47:07.264Z,15.08
2022-10-05T09:50:03.964Z,15.00
2022-10-05T09:53:05.881Z,15.06
2022-10-05T09:56:06.366Z,15.16
2022-10-05T09:59:14.368Z,15.22
2022-10-05T10:02:05.284Z,15.44
2022-10-05T10:05:01.789Z,15.51
2022-10-05T10:08:10.055Z,15.80
2022-10-05T10:11:11.511Z,15.80
2022-10-05T10:13:55.794Z,15.74
2022-10-05T10:16:35.801Z,15.52
2022-10-05T10:19:24.132Z,15.28
2022-10-05T10:22:42.947Z,15.06
2022-10-05T10:25:27.434Z,14.95
2022-10-05T10:28:14.857Z,14.84
2022-10-05T10:30:55.758Z,14.75
2022-10-05T10:33:47.669Z,14.67
2022-10-05T10:36:21.452Z,14.55
2022-10-05T10:38:58.476Z,14.57
2022-10-05T10:41:43.645Z,14.78
2022-10-05T10:44:48.933Z,15.02
2022-10-05T10:47:41.945Z,15.22
2022-10-05T10:50:45.097Z,15.35
2022-10-05T10:53:32.699Z,15.42
2022-10-05T10:56:24.240Z,15.46
2022-10-05T10:59:17.225Z,15.70
2022-10-05T11:02:02.556Z,15.90
2022-10-05T11:10:41.572Z,16.54
2022-10-05T11:13:47.714Z,16.66
2022-10-05T11:16:31.932Z,16.98
2022-10-05T11:19:40.271Z,17.17
2022-10-05T11:22:42.158Z,17.93
2022-10-05T11:25:23.226Z,18.09
2022-10-05T11:28:06.538Z,18.58
2022-10-05T11:30:57.505Z,18.56
2022-10-05T11:34:06.698Z,18.45
2022-10-05T11:37:07.638Z,18.13
2022-10-05T11:39:46.131Z,17.90
2022-10-05T11:43:01.972Z,17.82
2022-10-05T11:45:40.883Z,17.47
2022-10-05T11:48:33.543Z,17.40
2022-10-05T11:51:30.104Z,17.26
2022-10-05T11:54:07.874Z,17.25
2022-10-05T11:56:41.697Z,17.25
2022-10-05T11:59:18.878Z,17.31
2022-10-05T12:01:53.929Z,17.44
2022-10-05T12:04:30.736Z,17.67
2022-10-05T12:07:10.662Z,18.49
2022-10-05T12:10:17.313Z,18.84
2022-10-05T12:12:59.000Z,19.45
2022-10-05T12:15:32.422Z,20.02
2022-10-05T12:18:08.247Z,21.01
2022-10-05T12:20:45.940Z,21.33
2022-10-05T12:23:21.439Z,22.18
2022-10-05T12:25:56.656Z,22.81
2022-10-05T12:28:33.645Z,23.22
2022-10-05T12:31:13.310Z,23.71
2022-10-05T12:33:50.416Z,24.60
2022-10-05T12:36:28.613Z,25.35
2022-10-05T12:39:13.321Z,25.53
2022-10-05T12:41:48.883Z,26.05
2022-10-05T12:44:42.958Z,25.57
2022-10-05T12:47:20.899Z,25.75
2022-10-05T12:50:00.824Z,26.47
2022-10-05T12:52:43.305Z,26.93
2022-10-05T12:55:21.661Z,27.60
2022-10-05T12:58:05.258Z,28.01
2022-10-05T13:00:37.806Z,28.10
2022-10-05T13:03:16.101Z,27.68
2022-10-05T13:05:50.402Z,27.26
2022-10-05T13:08:24.670Z,27.60
2022-10-05T13:11:01.877Z,27.23
2022-10-05T13:13:47.179Z,27.14
2022-10-05T13:16:27.468Z,27.56
2022-10-05T13:19:07.389Z,27.94
2022-10-05T13:21:49.848Z,27.94
2022-10-05T13:24:26.604Z,26.99
2022-10-05T13:27:02.130Z,26.68
2022-10-05T13:29:36.241Z,26.15
2022-10-05T13:32:12.788Z,24.82
2022-10-05T13:34:47.421Z,23.31
2022-10-05T13:37:24.066Z,21.95
2022-10-05T13:40:04.722Z,20.84
2022-10-05T13:42:38.486Z,19.98
2022-10-05T13:45:15.067Z,19.33
2022-10-05T13:47:53.485Z,18.79
2022-10-05T13:50:29.721Z,18.38
2022-10-05T13:53:10.412Z,18.04
2022-10-05T13:55:44.541Z,17.78
2022-10-05T13:58:20.411Z,17.58
2022-10-05T14:00:53.912Z,17.42
2022-10-05T14:03:29.278Z,17.29
2022-10-05T14:06:01.457Z,17.18
2022-10-05T14:08:35.154Z,17.10
2022-10-05T14:14:14.340Z,16.97
2022-10-05T14:16:52.940Z,16.91
2022-10-05T14:19:28.063Z,16.86
2022-10-05T14:22:04.104Z,16.82
2022-10-05T14:24:45.036Z,16.80
2022-10-05T14:27:23.572Z,16.77
2022-10-05T14:30:02.960Z,16.73
2022-10-05T14:32:44.121Z,16.71
2022-10-05T14:35:20.664Z,16.67
2022-10-05T14:37:57.232Z,16.65
2022-10-05T14:40:30.922Z,16.66
2022-10-05T14:43:16.455Z,16.66
2022-10-05T14:45:56.545Z,16.63
2022-10-05T14:48:28.327Z,16.61
2022-10-05T14:51:03.206Z,16.60
2022-10-05T14:53:43.229Z,16.58
2022-10-05T14:56:28.510Z,16.58
2022-10-05T14:59:10.363Z,16.58
2022-10-05T15:01:46.176Z,16.60
2022-10-05T15:04:33.805Z,16.64
2022-10-05T15:07:19.404Z,16.67
2022-10-05T15:10:07.413Z,16.69
2022-10-05T15:12:41.431Z,16.68
2022-10-05T15:15:28.761Z,16.66
2022-10-05T15:18:02.577Z,16.62
2022-10-05T15:20:39.182Z,16.59
2022-10-05T15:23:24.741Z,16.57
2022-10-05T15:26:08.803Z,16.57
2022-10-05T15:28:48.272Z,16.57
2022-10-05T15:31:26.883Z,16.57
2022-10-05T15:34:01.983Z,16.57
2022-10-05T15:36:39.228Z,16.56
2022-10-05T15:39:16.676Z,16.56
2022-10-05T15:41:55.260Z,16.52
2022-10-05T15:44:34.226Z,16.46
2022-10-05T15:47:07.058Z,16.43
2022-10-05T15:49:37.604Z,16.40
2022-10-05T15:52:17.738Z,16.37
2022-10-05T15:55:23.775Z,16.32
2022-10-05T15:58:01.358Z,16.25
2022-10-05T16:00:36.453Z,16.19
2022-10-05T16:03:16.166Z,16.18
2022-10-05T16:06:08.050Z,16.15
2022-10-05T16:08:54.173Z,16.12
2022-10-05T16:11:40.455Z,16.05
2022-10-05T16:14:27.994Z,15.95
2022-10-05T16:17:09.634Z,15.85
2022-10-05T16:19:46.196Z,15.79
2022-10-05T16:22:22.165Z,15.72
2022-10-05T16:25:09.761Z,15.62
2022-10-05T16:27:49.463Z,15.49
2022-10-05T16:30:22.506Z,15.36
2022-10-05T16:32:57.601Z,15.23
2022-10-05T16:35:37.377Z,15.12
2022-10-05T16:38:19.344Z,15.01
2022-10-05T16:41:01.048Z,14.93
2022-10-05T16:43:39.088Z,14.83
2022-10-05T16:46:16.500Z,14.72
2022-10-05T16:48:54.885Z,14.61
2022-10-05T16:51:32.828Z,14.51
2022-10-05T16:54:18.312Z,14.43
2022-10-05T16:56:52.199Z,14.34
2022-10-05T16:59:55.526Z,14.26
2022-10-05T17:02:39.381Z,14.18
2022-10-05T17:05:24.029Z,14.18
2022-10-05T17:08:18.470Z,14.19
2022-10-05T17:10:59.666Z,14.30
2022-10-05T17:13:44.423Z,14.35
2022-10-05T17:16:23.173Z,14.44
2022-10-05T17:19:24.698Z,14.57
2022-10-05T17:22:00.368Z,14.71
2022-10-05T17:24:53.348Z,14.85
2022-10-05T17:27:52.430Z,14.95
2022-10-05T17:30:38.998Z,15.03
2022-10-05T17:33:25.528Z,15.04
2022-10-05T17:36:17.154Z,15.02
2022-10-05T17:38:53.373Z,15.00
2022-10-05T17:41:29.527Z,14.98
2022-10-05T17:44:20.871Z,14.98
2022-10-05T17:46:52.577Z,14.96
2022-10-05T17:50:15.630Z,14.91
2022-10-05T17:53:03.873Z,14.89
2022-10-05T17:55:46.010Z,14.91
2022-10-05T17:59:04.774Z,14.92
2022-10-05T18:01:39.726Z,14.99
2022-10-05T18:04:42.048Z,15.02
2022-10-05T18:07:23.121Z,15.08
2022-10-05T18:10:22.359Z,15.12
2022-10-05T18:13:12.795Z,15.16
2022-10-05T18:15:51.558Z,15.18
2022-10-05T18:18:52.838Z,15.14
2022-10-05T18:21:29.829Z,15.16
2022-10-05T18:24:21.787Z,15.22
2022-10-05T18:27:00.065Z,15.21
2022-10-05T18:30:09.101Z,15.15
2022-10-05T18:32:50.004Z,15.11
2022-10-05T18:35:23.108Z,15.11
2022-10-05T18:38:03.021Z,15.13
2022-10-05T18:40:41.127Z,15.13
2022-10-05T18:43:24.687Z,15.14
2022-10-05T18:46:05.518Z,15.08
2022-10-05T18:48:40.510Z,15.05
2022-10-05T18:51:19.179Z,15.06
2022-10-05T18:54:00.968Z,15.09
2022-10-05T18:56:37.424Z,15.07
2022-10-05T18:59:19.898Z,15.05
2022-10-05T19:01:58.252Z,15.01
2022-10-05T19:04:36.035Z,14.98
2022-10-05T19:07:18.015Z,15.00
2022-10-05T19:09:59.683Z,14.96
2022-10-05T19:12:41.669Z,14.89
2022-10-05T19:15:19.690Z,14.79
2022-10-05T19:18:08.613Z,14.68
2022-10-05T19:20:43.116Z,14.59
2022-10-05T19:23:27.043Z,14.56
2022-10-05T19:26:03.245Z,14.56
2022-10-05T19:28:38.292Z,14.61
2022-10-05T19:31:23.912Z,14.63
2022-10-05T19:34:11.179Z,14.67
2022-10-05T19:36:50.089Z,14.67
2022-10-05T19:39:28.426Z,14.68
2022-10-05T19:42:13.627Z,14.67
2022-10-05T19:44:54.054Z,14.66
2022-10-05T19:47:31.842Z,14.60
2022-10-05T19:50:19.869Z,14.54
2022-10-05T19:52:53.180Z,14.50
2022-10-05T19:55:35.276Z,14.47
2022-10-05T19:58:19.499Z,14.42
2022-10-05T20:00:59.445Z,14.38
2022-10-05T20:03:31.830Z,14.36
2022-10-05T20:06:03.950Z,14.32
2022-10-05T20:08:43.651Z,14.25
2022-10-05T20:11:16.312Z,14.19
2022-10-05T20:14:12.857Z,14.16
2022-10-05T20:17:00.688Z,14.15
2022-10-05T20:19:55.635Z,14.11
2022-10-05T20:22:32.711Z,14.10
2022-10-05T20:25:06.366Z,14.11
2022-10-05T20:27:46.813Z,14.11
2022-10-05T20:30:19.421Z,14.11
2022-10-05T20:32:52.963Z,14.11
2022-10-05T20:35:23.584Z,14.11
2022-10-05T20:37:54.022Z,14.09
2022-10-05T20:40:24.342Z,14.03
2022-10-05T20:42:54.927Z,13.98
2022-10-05T20:45:25.295Z,13.96
2022-10-05T20:47:55.615Z,13.94
2022-10-05T20:50:27.516Z,13.93
2022-10-05T20:52:57.881Z,13.90
2022-10-05T20:55:31.421Z,13.87
2022-10-05T20:58:02.003Z,13.82
2022-10-05T21:00:52.863Z,13.77
2022-10-05T21:03:23.327Z,13.76
2022-10-05T21:05:53.941Z,13.77
2022-10-05T21:08:25.136Z,13.76
2022-10-05T21:10:55.870Z,13.77
2022-10-05T21:13:27.063Z,13.77
2022-10-05T21:15:57.477Z,13.78
2022-10-05T21:18:28.208Z,13.79
2022-10-05T21:21:02.042Z,13.80
2022-10-05T21:23:33.519Z,13.80
2022-10-05T21:26:04.379Z,13.77
2022-10-05T21:28:35.047Z,13.75
2022-10-05T21:31:05.843Z,13.73
2022-10-05T21:33:37.058Z,13.74
2022-10-05T21:36:07.653Z,13.75
2022-10-05T21:38:38.087Z,13.74
2022-10-05T21:41:08.775Z,13.74
2022-10-05T21:43:39.397Z,13.73
2022-10-05T21:46:10.467Z,13.74
2022-10-05T21:48:42.152Z,13.75
2022-10-05T21:51:16.464Z,13.72
2022-10-05T21:53:51.091Z,13.71
2022-10-05T21:56:23.466Z,13.70
2022-10-05T21:58:54.395Z,13.67
2022-10-05T22:01:25.024Z,13.63
2022-10-05T22:03:56.920Z,13.62
2022-10-05T22:06:27.412Z,13.59
2022-10-05T22:08:57.793Z,13.57
2022-10-05T22:11:29.014Z,13.55
2022-10-05T22:14:02.573Z,13.50
2022-10-05T22:16:35.481Z,13.42
2022-10-05T22:19:05.266Z,13.36
2022-10-05T22:21:38.146Z,13.31
2022-10-05T22:24:09.119Z,13.29
2022-10-05T22:26:39.815Z,13.28
2022-10-05T22:29:10.527Z,13.25
2022-10-05T22:31:41.189Z,13.19
2022-10-05T22:34:11.656Z,13.18
2022-10-05T22:36:42.730Z,13.15
2022-10-05T22:39:13.128Z,13.13
2022-10-05T22:41:43.998Z,13.13
2022-10-05T22:44:14.386Z,13.16
2022-10-05T22:46:44.818Z,13.17
2022-10-05T22:49:15.260Z,13.16
2022-10-05T22:51:45.747Z,13.13
2022-10-05T22:54:16.180Z,13.13
2022-10-05T22:56:46.660Z,13.14
2022-10-05T22:59:17.771Z,13.11
2022-10-05T23:01:48.491Z,13.08
2022-10-05T23:04:19.114Z,13.04
2022-10-05T23:06:49.676Z,13.01
2022-10-05T23:09:20.281Z,13.03
2022-10-05T23:11:53.936Z,13.03
2022-10-05T23:14:24.570Z,13.02
2022-10-05T23:16:54.985Z,13.01
2022-10-05T23:19:25.918Z,13.01
2022-10-05T23:21:56.914Z,13.00
2022-10-05T23:24:27.354Z,12.97
2022-10-05T23:26:57.785Z,12.97
2022-10-05T23:29:28.652Z,12.96
2022-10-05T23:31:59.930Z,12.94
2022-10-05T23:34:30.337Z,12.91
2022-10-05T23:37:00.770Z,12.91
2022-10-05T23:39:31.208Z,12.89
2022-10-05T23:42:01.651Z,12.85
2022-10-05T23:44:32.048Z,12.81
2022-10-05T23:47:02.512Z,12.78
2022-10-05T23:49:33.433Z,12.76
2022-10-05T23:52:04.087Z,12.74
2022-10-05T23:54:34.422Z,12.73
2022-10-05T23:57:04.982Z,12.71
2022-10-05T23:59:35.349Z,12.69
